Pagrindinis puslapis
METAR-TAF:

METAR-TAF

Oro uostai :

Ha'il, Saudo Arabija

platuma: 27-26N, ilguma: 041-41E, Aukštis: 1015 m

Dabartinis oras

Ataskaita buvo paskelbta 35 minutes, ne 16:00 UTC
Vėjas 10 kt iš Vakarų
Temperatūra 7°C
Drėgmė 53%
Slėgis 1019 hPa
Matomumas 10 km arba daugiau
nėra debesų žemiau 1500 m ir nėra kamuolinių lietaus debesų

METAR: OEHL 221600Z 28010KT CAVOK 07/M02 Q1019

Laikas: 19:35 (16:35 UTC)

Prognozė

Ataskaita buvo paskelbta 5 valandos ir 35 minutes, ne 11:00 UTC
Prognozė galioja nuo 22 metu 12 UTC su 23 metu 18 UTC
Vėjas 14 kt iš Šiaurės Vakarų
Matomumas 10 km arba daugiau
nėra debesų žemiau 1500 m ir nėra kamuolinių lietaus debesų
Tapsmas
nuo 22 metu 20 UTC su 22 metu 22 UTC
Vėjas 3 kt nuo kintamojo kryptimis

TAF: OEHL 221100Z 2212/2318 32014KT CAVOK BECMG 2220/2222 VRB03KT

Orai ataskaitas ir orų prognozės (METAR, TAF).

turimą stotys yra geltonos ir raudonos taškus žemėlapyje.

Perkelti pele per norėdami pamatyti stoties vardą.

Tada spustelėkite, norėdami matyti oro stebėjimo ir prognozės.

Norėdami pakeisti žemėlapį: spustelėkite ant žalios mygtukų su juodo kryžiaus žemyn,; žalią mygtuką su brūkšneliu, jei norite nutolinti; arba žalių rodyklių gretimoms žemėlapius.


METAR-TAF: